Aeroporto :
LOGIN :

Iscrizione | Disclaimer

   EN    FR    IT 

 










Sommario :    VFR   VFR Marginale   IFR   IFR Intensivo   IFR Molto Intensivo
Visibilità : 
Base nubi : 
>= 8 km
>= 3000ft
5 / 8 km
1000 / 3000 ft
1500m / 5 km
500 / 1000 ft
800 / 1500m
200 / 500 ft
< 800m
< 200 ft
Simboli :   Temporali  Nebbia  Neve Forte  Precipitazioni Forti  Vento > 20 kt
SIGMETs :   Varie  Temporali  Ghiacco  Turbolenza  Onda orograficha  Ceneri Vulcaniche






- Altitudine del aeroporto : 1585 ft
- Codice IATA : SIR


LSGS - Sion

ULTIMO METAR :
  • 231050Z VRB02KT 9999 SCT090 13/01 Q1029

METARs OBSOLETI :
  • 231020Z VRB01KT 9999 SCT090 12/02 Q1030
  • 230950Z 10004KT 060V130 9999 SCT090 10/01 Q1030
  • 230920Z 08004KT 040V120 9999 SCT090 09/02 Q1031
  • 230850Z 08006KT 9999 SCT080 SCT120 06/02 Q1031 RERA
  • 230820Z 09005KT 9999 SCT080 SCT120 06/01 Q1031

TAF TAF LSGS
Valido dal 23 a 09 ore il 23 a 18 ore UTC


230825Z 2309/2318 VRB03KT 9999 SCT080
TEMPO 2312/2315 25010KT



MetMap, La meteo Aeronautica in un colpo d'occhio ! - Copyright ORBIFLY Dicembre 2007 - Disclaimer

ORBIFLY MET'MAP TEAM :

Programmazione e sviluppo : Alexandra Zaïnal
Concezione : Baudouin d'Aumeries
Aiuto per la programmazione : Marc-Olivier Méhu
Supporto tecnico e logistico : Manuel Goepfert
Aiuto per la traduzione : Arnaldo La Scala

Contatto : metmap@orbifly.com




FONTI E CREDITI :

   NOAA